Merced, California
Current Conditions -  °F | °C
As of 9:45 AM on Wednesday 28 Jan 2015 (Local Time) from KMER Reporting Station
Moderate Fog Moderate Fog  
Wind Chill: 44°   Ceiling: 100
Heat Index: 46°   Visibility: 0.12mi
Dew Point: 46°   Wind: 5mph
Humidity: 100%   Direction: NA
Pressure: 30.28"   Gusts: NA
Location:  37.3°N, 120.48°W
Report Text: KMER 281745Z VRB04KT 1/8SM FG OVC001 08/08 A3028
Loading
Personal Weather Stations






























Interactive Weather Map New forecast layout! Learn more

10-Day Weather Forecast

Advertisements
Track Severe Weather on mobile